Terminal Aerodrome Forecast
Issued by NWS Wilmington, OH

Current Version | Previous Version | Graphics & Text | Print | Product List | Glossary On
Versions: 1 2 3 4 5 6 7 8 9 10 11 12 13 14 15 16 17 18 19 20 21
000
FTUS41 KILN 011700
TAFCVG
TAF
KCVG 011730Z 0118/0224 34011KT P6SM SCT040
     FM020000 VRB03KT P6SM SKC
     FM021400 26004KT P6SM SCT200
     FM021800 26006KT P6SM SCT050 SCT250=

USA.gov is the U.S. government's official web portal to all federal, state and local government web resources and services.